createdAt,value
2022-10-09T00:01:07.672Z,101620.09
2022-10-09T00:03:35.749Z,101620.03
2022-10-09T00:06:03.203Z,101628.78
2022-10-09T00:08:30.098Z,101629.66
2022-10-09T00:10:56.881Z,101630.50
2022-10-09T00:13:23.750Z,101631.31
2022-10-09T00:15:50.409Z,101643.50
2022-10-09T00:18:18.411Z,101647.88
2022-10-09T00:20:46.089Z,101645.94
2022-10-09T00:23:15.286Z,101649.41
2022-10-09T00:26:00.177Z,101641.47
2022-10-09T00:28:28.920Z,101647.50
2022-10-09T00:30:55.775Z,101649.09
2022-10-09T00:33:22.864Z,101653.47
2022-10-09T00:35:49.937Z,101655.09
2022-10-09T00:38:16.803Z,101656.78
2022-10-09T00:40:43.488Z,101665.47
2022-10-09T00:43:16.429Z,101662.81
2022-10-09T00:45:51.603Z,101668.78
2022-10-09T00:48:18.677Z,101667.03
2022-10-09T00:50:50.139Z,101672.13
2022-10-09T00:53:19.478Z,101671.28
2022-10-09T00:55:46.318Z,101673.88
2022-10-09T00:58:13.193Z,101674.72
2022-10-09T01:00:41.040Z,101669.63
2022-10-09T01:03:07.765Z,101681.69
2022-10-09T01:05:53.895Z,101683.41
2022-10-09T01:08:44.937Z,101681.56
2022-10-09T01:11:25.446Z,101682.53
2022-10-09T01:14:05.042Z,101689.38
2022-10-09T01:16:36.820Z,101692.81
2022-10-09T01:19:16.785Z,101695.34
2022-10-09T01:21:51.394Z,101695.28
2022-10-09T01:24:27.760Z,101696.09
2022-10-09T01:27:16.746Z,101697.75
2022-10-09T01:29:49.151Z,101696.78
2022-10-09T01:32:21.591Z,101702.03
2022-10-09T01:34:49.788Z,101704.63
2022-10-09T01:37:17.369Z,101703.69
2022-10-09T01:39:45.307Z,101704.53
2022-10-09T01:42:13.498Z,101703.59
2022-10-09T01:44:40.202Z,101704.53
2022-10-09T01:47:13.328Z,101700.38
2022-10-09T01:49:44.252Z,101707.06
2022-10-09T01:52:46.006Z,101709.81
2022-10-09T01:55:36.433Z,101705.16
2022-10-09T01:58:20.529Z,101712.16
2022-10-09T02:01:27.006Z,101713.88
2022-10-09T02:03:55.106Z,101704.19
2022-10-09T02:06:22.007Z,101711.28
2022-10-09T02:08:50.326Z,101712.97
2022-10-09T02:11:17.504Z,101717.50
2022-10-09T02:13:45.317Z,101726.06
2022-10-09T02:16:37.633Z,101719.81
2022-10-09T02:19:10.474Z,101718.25
2022-10-09T02:21:46.773Z,101734.66
2022-10-09T02:24:17.751Z,101724.97
2022-10-09T02:26:44.373Z,101724.97
2022-10-09T02:29:12.063Z,101729.34
2022-10-09T02:31:40.760Z,101731.09
2022-10-09T02:34:09.760Z,101741.38
2022-10-09T02:36:36.773Z,101742.16
2022-10-09T02:39:04.930Z,101742.16
2022-10-09T02:41:31.629Z,101741.22
2022-10-09T02:43:58.535Z,101741.88
2022-10-09T02:46:25.416Z,101744.63
2022-10-09T02:48:52.172Z,101749.91
2022-10-09T02:51:18.831Z,101751.41
2022-10-09T02:53:45.661Z,101753.75
2022-10-09T02:56:12.508Z,101749.34
2022-10-09T02:58:39.931Z,101749.00
2022-10-09T03:01:06.623Z,101761.19
2022-10-09T03:03:33.453Z,101758.56
2022-10-09T03:06:10.782Z,101760.13
2022-10-09T03:08:39.493Z,101767.03
2022-10-09T03:11:06.435Z,101760.97
2022-10-09T03:13:33.158Z,101758.34
2022-10-09T03:16:08.315Z,101754.84
2022-10-09T03:18:35.426Z,101754.75
2022-10-09T03:21:08.532Z,101753.94
2022-10-09T03:23:35.427Z,101762.59
2022-10-09T03:26:04.708Z,101758.16
2022-10-09T03:28:31.417Z,101759.13
2022-10-09T03:30:58.178Z,101767.81
2022-10-09T03:33:24.808Z,101772.03
2022-10-09T03:35:51.426Z,101766.84
2022-10-09T03:38:18.045Z,101769.59
2022-10-09T03:40:45.124Z,101765.13
2022-10-09T03:43:11.695Z,101770.31
2022-10-09T03:45:42.131Z,101768.47
2022-10-09T03:48:10.591Z,101771.88
2022-10-09T03:50:38.261Z,101776.38
2022-10-09T03:53:05.814Z,101780.75
2022-10-09T03:55:32.618Z,101774.59
2022-10-09T03:57:59.293Z,101783.34
2022-10-09T04:00:26.140Z,101780.97
2022-10-09T04:02:53.170Z,101789.59
2022-10-09T04:05:20.076Z,101795.75
2022-10-09T04:07:46.648Z,101788.81
2022-10-09T04:10:13.251Z,101783.44
2022-10-09T04:12:39.899Z,101786.19
2022-10-09T04:15:07.133Z,101791.34
2022-10-09T04:17:33.850Z,101788.81
2022-10-09T04:20:00.536Z,101793.16
2022-10-09T04:22:27.212Z,101803.75
2022-10-09T04:24:53.910Z,101812.50
2022-10-09T04:27:20.529Z,101815.22
2022-10-09T04:29:47.166Z,101805.81
2022-10-09T04:32:13.792Z,101815.59
2022-10-09T04:34:40.412Z,101823.56
2022-10-09T04:37:07.002Z,101820.22
2022-10-09T04:39:33.622Z,101823.97
2022-10-09T04:42:00.232Z,101825.94
2022-10-09T04:44:26.822Z,101826.91
2022-10-09T04:46:53.417Z,101830.53
2022-10-09T04:49:20.118Z,101829.78
2022-10-09T04:51:46.723Z,101825.56
2022-10-09T04:54:13.314Z,101832.66
2022-10-09T04:56:39.992Z,101833.78
2022-10-09T04:59:06.759Z,101839.09
2022-10-09T05:01:38.100Z,101831.34
2022-10-09T05:04:05.568Z,101834.06
2022-10-09T05:06:32.232Z,101836.72
2022-10-09T05:08:58.868Z,101832.41
2022-10-09T05:11:25.886Z,101827.28
2022-10-09T05:13:54.716Z,101835.22
2022-10-09T05:16:23.768Z,101845.78
2022-10-09T05:18:54.451Z,101846.72
2022-10-09T05:21:21.231Z,101844.06
2022-10-09T05:23:48.302Z,101847.59
2022-10-09T05:26:19.599Z,101846.72
2022-10-09T05:28:46.801Z,101854.53
2022-10-09T05:31:22.593Z,101849.31
2022-10-09T05:33:49.652Z,101857.13
2022-10-09T05:36:16.803Z,101851.19
2022-10-09T05:38:44.110Z,101853.91
2022-10-09T05:41:13.199Z,101862.53
2022-10-09T05:43:41.551Z,101855.59
2022-10-09T05:46:09.584Z,101863.50
2022-10-09T05:48:37.759Z,101860.97
2022-10-09T05:51:22.494Z,101860.09
2022-10-09T05:53:49.467Z,101869.00
2022-10-09T05:56:24.699Z,101869.03
2022-10-09T05:58:53.824Z,101862.97
2022-10-09T06:01:21.454Z,101871.69
2022-10-09T06:03:53.228Z,101870.94
2022-10-09T06:06:21.717Z,101872.75
2022-10-09T06:08:48.878Z,101872.88
2022-10-09T06:11:24.093Z,101875.63
2022-10-09T06:13:51.591Z,101877.44
2022-10-09T06:16:18.669Z,101889.84
2022-10-09T06:18:49.277Z,101885.44
2022-10-09T06:21:16.981Z,101895.19
2022-10-09T06:23:43.946Z,101895.25
2022-10-09T06:26:12.577Z,101898.94
2022-10-09T06:28:39.530Z,101896.28
2022-10-09T06:31:11.393Z,101898.16
2022-10-09T06:33:39.911Z,101904.59
2022-10-09T06:36:10.278Z,101915.94
2022-10-09T06:38:38.313Z,101905.53
2022-10-09T06:41:07.918Z,101917.03
2022-10-09T06:43:34.565Z,101913.34
2022-10-09T06:46:02.979Z,101923.00
2022-10-09T06:48:33.509Z,101916.97
2022-10-09T06:51:13.994Z,101924.03
2022-10-09T06:53:43.446Z,101935.56
2022-10-09T06:56:10.602Z,101922.81
2022-10-09T06:58:37.983Z,101927.03
2022-10-09T07:01:12.182Z,101928.81
2022-10-09T07:03:40.961Z,101926.53
2022-10-09T07:06:11.394Z,101933.66
2022-10-09T07:08:39.770Z,101939.56
2022-10-09T07:11:15.447Z,101930.13
2022-10-09T07:13:43.030Z,101935.44
2022-10-09T07:16:10.730Z,101939.03
2022-10-09T07:18:38.505Z,101937.44
2022-10-09T07:21:07.669Z,101940.41
2022-10-09T07:23:35.415Z,101942.31
2022-10-09T07:26:08.135Z,101943.28
2022-10-09T07:28:35.213Z,101948.41
2022-10-09T07:31:05.442Z,101946.78
2022-10-09T07:33:32.128Z,101951.16
2022-10-09T07:36:00.721Z,101955.53
2022-10-09T07:38:27.875Z,101951.41
2022-10-09T07:40:54.816Z,101949.72
2022-10-09T07:43:22.307Z,101964.78
2022-10-09T07:45:48.993Z,101965.66
2022-10-09T07:48:15.662Z,101968.38
2022-10-09T07:50:42.273Z,101962.38
2022-10-09T07:53:09.038Z,101972.94
2022-10-09T07:55:36.211Z,101976.56
2022-10-09T07:58:02.968Z,101971.22
2022-10-09T08:00:29.568Z,101980.06
2022-10-09T08:02:56.314Z,101971.41
2022-10-09T08:05:22.994Z,101975.88
2022-10-09T08:07:49.665Z,101978.53
2022-10-09T08:10:16.522Z,101988.28
2022-10-09T08:12:43.259Z,101983.09
2022-10-09T08:15:10.047Z,101985.72
2022-10-09T08:17:36.789Z,101986.69
2022-10-09T08:20:03.613Z,101976.25
2022-10-09T08:22:30.246Z,101997.22
2022-10-09T08:24:57.084Z,101998.31
2022-10-09T08:27:23.800Z,102000.19
2022-10-09T08:29:50.460Z,102005.47
2022-10-09T08:32:17.079Z,102007.00
2022-10-09T08:34:43.759Z,101996.69
2022-10-09T08:37:10.359Z,102002.91
2022-10-09T08:39:37.146Z,102002.13
2022-10-09T08:42:04.138Z,102013.50
2022-10-09T08:44:32.624Z,102000.47
2022-10-09T08:47:16.998Z,102007.66
2022-10-09T08:49:58.848Z,102008.56
2022-10-09T08:52:37.596Z,102012.19
2022-10-09T08:55:27.553Z,102004.28
2022-10-09T08:57:56.920Z,102007.75
2022-10-09T09:00:45.057Z,102002.47
2022-10-09T09:03:27.519Z,102010.50
2022-10-09T09:06:06.383Z,102009.63
2022-10-09T09:08:56.724Z,102021.13
2022-10-09T09:11:41.554Z,102011.50
2022-10-09T09:14:12.926Z,102020.34
2022-10-09T09:17:00.276Z,102015.94
2022-10-09T09:19:39.047Z,102008.97
2022-10-09T09:22:10.718Z,102014.28
2022-10-09T09:24:40.063Z,102008.13
2022-10-09T09:27:14.145Z,102006.41
2022-10-09T09:29:44.370Z,102010.78
2022-10-09T09:32:18.002Z,102010.88
2022-10-09T09:34:44.752Z,102003.81
2022-10-09T09:37:12.350Z,102001.22
2022-10-09T09:42:27.358Z,102010.03
2022-10-09T09:44:59.935Z,102011.78
2022-10-09T09:47:51.109Z,102016.22
2022-10-09T09:50:47.156Z,102011.81
2022-10-09T09:53:31.705Z,102000.34
2022-10-09T09:55:58.538Z,102010.91
2022-10-09T09:58:34.097Z,101999.47
2022-10-09T10:01:03.195Z,101994.16
2022-10-09T10:03:31.182Z,101993.25
2022-10-09T10:05:58.801Z,101998.50
2022-10-09T10:08:29.865Z,101994.88
2022-10-09T10:11:00.996Z,102001.88
2022-10-09T10:13:34.299Z,101986.72
2022-10-09T10:16:01.375Z,101992.00
2022-10-09T10:18:32.618Z,101985.66
2022-10-09T10:21:14.099Z,101983.75
2022-10-09T10:23:55.989Z,101990.69
2022-10-09T10:26:34.602Z,101974.69
2022-10-09T10:29:21.036Z,101984.44
2022-10-09T10:32:12.292Z,101979.78
2022-10-09T10:34:53.528Z,101973.75
2022-10-09T10:37:47.940Z,101984.09
2022-10-09T10:40:30.869Z,101976.00
2022-10-09T10:43:09.629Z,101967.13
2022-10-09T10:45:51.333Z,101966.00
2022-10-09T10:48:41.164Z,101963.94
2022-10-09T10:51:16.485Z,101961.25
2022-10-09T10:54:19.730Z,101956.69
2022-10-09T10:57:03.777Z,101960.84
2022-10-09T10:59:49.200Z,101963.38
2022-10-09T11:02:48.806Z,101956.25
2022-10-09T11:05:38.385Z,101949.88
2022-10-09T11:08:14.166Z,101953.34
2022-10-09T11:11:11.602Z,101947.19
2022-10-09T11:14:20.156Z,101945.28
2022-10-09T11:17:02.791Z,101935.22
2022-10-09T11:20:05.472Z,101933.13
2022-10-09T11:22:57.242Z,101933.50
2022-10-09T11:25:44.921Z,101929.06
2022-10-09T11:28:15.277Z,101927.78
2022-10-09T11:31:04.628Z,101927.47
2022-10-09T11:33:39.183Z,101916.63
2022-10-09T11:36:16.552Z,101920.47
2022-10-09T11:38:51.093Z,101919.56
2022-10-09T11:41:19.865Z,101912.97
2022-10-09T11:44:23.301Z,101914.72
2022-10-09T11:47:04.746Z,101915.97
2022-10-09T11:49:53.601Z,101912.31
2022-10-09T11:52:40.200Z,101905.88
2022-10-09T11:55:19.910Z,101898.59
2022-10-09T11:57:46.785Z,101898.97
2022-10-09T12:00:17.052Z,101895.09
2022-10-09T12:02:44.120Z,101898.56
2022-10-09T12:05:41.547Z,101892.94
2022-10-09T12:08:16.814Z,101885.41
2022-10-09T12:11:00.349Z,101886.13
2022-10-09T12:13:51.511Z,101882.31
2022-10-09T12:16:46.504Z,101873.25
2022-10-09T12:19:23.495Z,101869.03
2022-10-09T12:21:59.632Z,101870.56
2022-10-09T12:24:29.049Z,101868.00
2022-10-09T12:27:07.394Z,101867.75
2022-10-09T12:29:44.486Z,101866.09
2022-10-09T12:32:33.430Z,101873.78
2022-10-09T12:35:01.120Z,101863.31
2022-10-09T12:37:35.664Z,101862.38
2022-10-09T12:40:15.255Z,101863.84
2022-10-09T12:42:43.407Z,101860.69
2022-10-09T12:45:21.630Z,101854.72
2022-10-09T12:47:48.646Z,101861.69
2022-10-09T12:50:25.983Z,101861.72
2022-10-09T12:52:57.472Z,101856.50
2022-10-09T12:55:36.493Z,101854.50
2022-10-09T12:58:07.200Z,101852.66
2022-10-09T13:00:36.652Z,101851.09
2022-10-09T13:03:03.342Z,101849.75
2022-10-09T13:05:40.740Z,101847.44
2022-10-09T13:08:25.156Z,101846.69
2022-10-09T13:10:51.821Z,101836.38
2022-10-09T13:13:26.277Z,101829.16
2022-10-09T13:16:06.268Z,101819.44
2022-10-09T13:18:33.111Z,101820.50
2022-10-09T13:21:13.709Z,101812.94
2022-10-09T13:23:42.882Z,101820.81
2022-10-09T13:26:29.826Z,101814.88
2022-10-09T13:28:58.581Z,101821.19
2022-10-09T13:31:26.225Z,101822.28
2022-10-09T13:33:52.909Z,101818.00
2022-10-09T13:36:20.199Z,101815.88
2022-10-09T13:38:47.680Z,101809.66
2022-10-09T13:41:21.265Z,101818.28
2022-10-09T13:43:48.388Z,101810.13
2022-10-09T13:46:16.453Z,101812.00
2022-10-09T13:48:43.383Z,101801.25
2022-10-09T13:51:10.336Z,101804.69
2022-10-09T13:53:37.173Z,101807.47
2022-10-09T13:56:04.078Z,101807.22
2022-10-09T13:58:31.686Z,101805.56
2022-10-09T14:00:58.400Z,101808.66
2022-10-09T14:03:25.030Z,101803.19
2022-10-09T14:05:58.346Z,101803.38
2022-10-09T14:08:24.990Z,101798.75
2022-10-09T14:10:51.672Z,101799.03
2022-10-09T14:13:19.363Z,101786.06
2022-10-09T14:15:46.162Z,101789.81
2022-10-09T14:18:12.791Z,101793.53
2022-10-09T14:20:39.446Z,101786.06
2022-10-09T14:23:06.025Z,101785.44
2022-10-09T14:25:34.330Z,101781.97
2022-10-09T14:28:01.258Z,101778.56
2022-10-09T14:30:28.066Z,101779.81
2022-10-09T14:32:55.480Z,101777.09
2022-10-09T14:35:39.489Z,101770.69
2022-10-09T14:38:06.202Z,101775.38
2022-10-09T14:40:33.037Z,101770.09
2022-10-09T14:43:00.414Z,101776.78
2022-10-09T14:45:29.169Z,101774.16
2022-10-09T14:47:56.876Z,101763.03
2022-10-09T14:50:23.611Z,101753.94
2022-10-09T14:52:50.407Z,101757.81
2022-10-09T14:55:17.910Z,101762.00
2022-10-09T14:57:44.606Z,101758.69
2022-10-09T15:00:11.799Z,101758.69
2022-10-09T15:02:38.553Z,101755.13
2022-10-09T15:05:05.633Z,101755.84
2022-10-09T15:07:33.658Z,101761.41
2022-10-09T15:10:00.369Z,101759.09
2022-10-09T15:12:27.077Z,101752.38
2022-10-09T15:14:53.748Z,101757.25
2022-10-09T15:17:20.375Z,101756.47
2022-10-09T15:19:46.991Z,101750.72
2022-10-09T15:22:13.610Z,101752.06
2022-10-09T15:24:40.217Z,101751.31
2022-10-09T15:27:06.850Z,101748.09
2022-10-09T15:29:33.489Z,101748.09
2022-10-09T15:32:02.223Z,101738.56
2022-10-09T15:34:29.360Z,101747.44
2022-10-09T15:36:55.961Z,101743.97
2022-10-09T15:39:23.653Z,101738.81
2022-10-09T15:41:50.413Z,101739.03
2022-10-09T15:44:19.652Z,101734.63
2022-10-09T15:46:47.870Z,101732.13
2022-10-09T15:49:14.659Z,101736.69
2022-10-09T15:51:42.568Z,101738.81
2022-10-09T15:54:10.774Z,101742.44
2022-10-09T15:56:39.904Z,101733.69
2022-10-09T15:59:07.594Z,101739.97
2022-10-09T16:01:34.244Z,101736.47
2022-10-09T16:04:00.893Z,101743.63
2022-10-09T16:06:27.510Z,101742.81
2022-10-09T16:08:58.213Z,101732.38
2022-10-09T16:11:26.524Z,101729.81
2022-10-09T16:13:54.194Z,101732.47
2022-10-09T16:16:22.883Z,101734.22
2022-10-09T16:18:50.056Z,101731.63
2022-10-09T16:21:23.032Z,101742.25
2022-10-09T16:23:52.256Z,101739.66
2022-10-09T16:26:22.357Z,101741.44
2022-10-09T16:28:49.271Z,101746.69
2022-10-09T16:31:24.166Z,101747.59
2022-10-09T16:33:50.938Z,101741.47
2022-10-09T16:36:17.740Z,101744.97
2022-10-09T16:38:44.414Z,101744.97
2022-10-09T16:41:14.724Z,101749.38
2022-10-09T16:43:41.320Z,101750.25
2022-10-09T16:46:19.759Z,101745.84
2022-10-09T16:48:47.751Z,101744.06
2022-10-09T16:51:17.514Z,101749.34
2022-10-09T16:53:44.712Z,101748.47
2022-10-09T16:56:14.911Z,101749.31
2022-10-09T16:58:42.499Z,101751.94
2022-10-09T17:01:12.912Z,101739.59
2022-10-09T17:03:41.386Z,101747.50
2022-10-09T17:06:14.052Z,101750.13
2022-10-09T17:08:40.832Z,101743.91
2022-10-09T17:11:12.962Z,101745.63
2022-10-09T17:13:40.051Z,101746.47
2022-10-09T17:16:17.819Z,101744.69
2022-10-09T17:18:46.087Z,101749.91
2022-10-09T17:21:13.614Z,101741.22
2022-10-09T17:23:40.840Z,101742.78
2022-10-09T17:26:09.264Z,101744.50
2022-10-09T17:28:36.182Z,101747.97
2022-10-09T17:31:04.498Z,101750.53
2022-10-09T17:33:32.340Z,101747.88
2022-10-09T17:35:59.056Z,101744.31
2022-10-09T17:38:26.130Z,101750.44
2022-10-09T17:40:53.127Z,101739.84
2022-10-09T17:43:19.790Z,101752.06
2022-10-09T17:45:48.808Z,101737.16
2022-10-09T17:48:15.673Z,101738.84
2022-10-09T17:50:53.441Z,101739.63
2022-10-09T17:53:20.377Z,101742.19
2022-10-09T17:55:47.101Z,101737.81
2022-10-09T17:58:14.061Z,101734.28
2022-10-09T18:00:40.826Z,101727.22
2022-10-09T18:03:07.582Z,101732.38
2022-10-09T18:05:41.397Z,101735.81
2022-10-09T18:08:08.175Z,101730.50
2022-10-09T18:10:36.942Z,101722.53
2022-10-09T18:13:04.991Z,101729.50
2022-10-09T18:15:32.342Z,101724.28
2022-10-09T18:17:59.122Z,101727.66
2022-10-09T18:20:26.566Z,101723.28
2022-10-09T18:22:53.219Z,101717.06
2022-10-09T18:25:19.999Z,101724.94
2022-10-09T18:27:46.738Z,101719.63
2022-10-09T18:30:13.930Z,101709.03
2022-10-09T18:32:40.782Z,101709.94
2022-10-09T18:35:07.667Z,101704.59
2022-10-09T18:37:34.495Z,101710.66
2022-10-09T18:40:01.087Z,101708.00
2022-10-09T18:42:27.768Z,101704.63
2022-10-09T18:44:54.772Z,101702.75
2022-10-09T18:47:22.803Z,101706.16
2022-10-09T18:49:52.964Z,101704.31
2022-10-09T18:52:19.757Z,101701.69
2022-10-09T18:54:49.343Z,101711.31
2022-10-09T18:57:16.225Z,101702.50
2022-10-09T18:59:43.088Z,101694.56
2022-10-09T19:02:09.667Z,101699.81
2022-10-09T19:04:36.418Z,101691.97
2022-10-09T19:07:03.388Z,101693.72
2022-10-09T19:09:30.111Z,101684.13
2022-10-09T19:11:56.917Z,101684.84
2022-10-09T19:14:23.562Z,101687.34
2022-10-09T19:16:50.226Z,101682.88
2022-10-09T19:19:17.370Z,101683.84
2022-10-09T19:21:44.379Z,101683.75
2022-10-09T19:24:12.507Z,101676.78
2022-10-09T19:26:40.267Z,101673.28
2022-10-09T19:29:07.825Z,101679.41
2022-10-09T19:31:35.747Z,101681.00
2022-10-09T19:34:04.576Z,101679.28
2022-10-09T19:36:36.594Z,101679.16
2022-10-09T19:39:08.283Z,101677.41
2022-10-09T19:41:35.288Z,101679.16
2022-10-09T19:44:01.903Z,101670.44
2022-10-09T19:46:28.701Z,101670.28
2022-10-09T19:48:55.408Z,101680.75
2022-10-09T19:51:24.270Z,101671.13
2022-10-09T19:53:53.420Z,101678.06
2022-10-09T19:56:22.467Z,101673.66
2022-10-09T19:58:49.275Z,101677.00
2022-10-09T20:01:19.137Z,101671.75
2022-10-09T20:03:46.252Z,101666.28
2022-10-09T20:06:13.518Z,101663.66
2022-10-09T20:08:41.341Z,101668.97
2022-10-09T20:11:08.853Z,101658.50
2022-10-09T20:13:37.686Z,101665.50
2022-10-09T20:16:06.890Z,101668.91
2022-10-09T20:18:34.030Z,101659.34
2022-10-09T20:21:00.726Z,101651.25
2022-10-09T20:23:27.328Z,101656.41
2022-10-09T20:26:01.590Z,101654.72
2022-10-09T20:28:31.154Z,101644.97
2022-10-09T20:31:06.339Z,101652.84
2022-10-09T20:33:34.186Z,101652.84
2022-10-09T20:36:01.027Z,101650.13
2022-10-09T20:38:28.089Z,101644.03
2022-10-09T20:40:54.699Z,101645.78
2022-10-09T20:43:21.313Z,101642.25
2022-10-09T20:45:47.922Z,101642.13
2022-10-09T20:48:14.667Z,101637.66
2022-10-09T20:50:42.290Z,101643.00
2022-10-09T20:53:12.255Z,101651.56
2022-10-09T20:55:38.897Z,101634.94
2022-10-09T20:58:05.547Z,101630.56
2022-10-09T21:00:32.309Z,101633.25
2022-10-09T21:02:59.123Z,101636.78
2022-10-09T21:05:26.498Z,101630.75
2022-10-09T21:07:53.163Z,101625.34
2022-10-09T21:10:19.731Z,101627.94
2022-10-09T21:12:46.362Z,101621.72
2022-10-09T21:15:13.061Z,101612.13
2022-10-09T21:17:39.699Z,101617.28
2022-10-09T21:20:06.592Z,101623.50
2022-10-09T21:22:33.664Z,101624.25
2022-10-09T21:25:00.389Z,101617.34
2022-10-09T21:27:27.144Z,101615.50
2022-10-09T21:29:53.866Z,101620.50
2022-10-09T21:32:20.651Z,101614.50
2022-10-09T21:34:47.613Z,101602.25
2022-10-09T21:37:21.542Z,101602.16
2022-10-09T21:39:48.927Z,101608.25
2022-10-09T21:42:15.617Z,101598.75
2022-10-09T21:44:42.357Z,101597.91
2022-10-09T21:47:15.377Z,101598.66
2022-10-09T21:49:41.986Z,101601.19
2022-10-09T21:52:09.928Z,101596.81
2022-10-09T21:54:36.572Z,101605.47
2022-10-09T21:57:03.194Z,101595.88
2022-10-09T21:59:29.860Z,101594.09
2022-10-09T22:01:56.989Z,101601.13
2022-10-09T22:04:23.692Z,101603.75
2022-10-09T22:06:50.368Z,101596.81
2022-10-09T22:09:16.980Z,101595.94
2022-10-09T22:11:44.957Z,101589.03
2022-10-09T22:14:14.298Z,101587.97
2022-10-09T22:16:40.907Z,101598.31
2022-10-09T22:19:07.610Z,101593.94
2022-10-09T22:21:34.288Z,101588.84
2022-10-09T22:24:01.429Z,101582.63
2022-10-09T22:26:28.184Z,101589.78
2022-10-09T22:28:54.967Z,101587.25
2022-10-09T22:31:26.477Z,101589.00
2022-10-09T22:33:55.447Z,101582.63
2022-10-09T22:36:24.410Z,101586.22
2022-10-09T22:38:59.110Z,101585.38
2022-10-09T22:41:27.665Z,101585.34
2022-10-09T22:43:56.184Z,101587.94
2022-10-09T22:46:26.398Z,101585.38
2022-10-09T22:48:53.252Z,101584.50
2022-10-09T22:51:21.321Z,101575.63
2022-10-09T22:53:48.562Z,101576.59
2022-10-09T22:56:17.875Z,101576.50
2022-10-09T22:58:45.052Z,101576.50
2022-10-09T23:01:15.049Z,101571.16
2022-10-09T23:03:42.165Z,101560.84
2022-10-09T23:06:17.027Z,101560.81
2022-10-09T23:08:45.892Z,101560.78
2022-10-09T23:11:13.294Z,101565.00
2022-10-09T23:13:40.290Z,101564.97
2022-10-09T23:16:09.786Z,101557.00
2022-10-09T23:18:37.155Z,101559.50
2022-10-09T23:21:12.960Z,101565.56
2022-10-09T23:23:40.300Z,101560.34
2022-10-09T23:26:15.769Z,101545.84
2022-10-09T23:28:42.638Z,101549.94
2022-10-09T23:31:12.146Z,101551.81
2022-10-09T23:33:44.071Z,101546.53
2022-10-09T23:36:12.565Z,101538.81
2022-10-09T23:38:39.403Z,101539.44
2022-10-09T23:41:08.054Z,101535.19
2022-10-09T23:43:36.596Z,101541.03
2022-10-09T23:46:04.521Z,101535.72
2022-10-09T23:48:31.458Z,101543.66
2022-10-09T23:50:58.136Z,101535.88
2022-10-09T23:53:26.027Z,101529.81
2022-10-09T23:55:53.460Z,101527.09
2022-10-09T23:58:21.372Z,101517.59
